sensor_id;sensor_type;location;lat;lon;timestamp;pressure;altitude;pressure_sealevel;temperature;humidity
72685;BME280;61365;52.162;4.500;2023-02-05T00:01:23;103667.69;;;8.36;91.35
72685;BME280;61365;52.162;4.500;2023-02-05T00:03:49;103662.63;;;8.39;91.00
72685;BME280;61365;52.162;4.500;2023-02-05T00:06:16;103659.25;;;8.25;90.85
72685;BME280;61365;52.162;4.500;2023-02-05T00:08:42;103651.16;;;8.20;91.42
72685;BME280;61365;52.162;4.500;2023-02-05T00:11:09;103652.16;;;8.39;90.17
72685;BME280;61365;52.162;4.500;2023-02-05T00:13:36;103652.97;;;8.38;90.65
72685;BME280;61365;52.162;4.500;2023-02-05T00:16:12;103646.50;;;8.31;90.09
72685;BME280;61365;52.162;4.500;2023-02-05T00:18:41;103665.66;;;8.30;90.98
72685;BME280;61365;52.162;4.500;2023-02-05T00:21:09;103663.66;;;8.26;90.98
72685;BME280;61365;52.162;4.500;2023-02-05T00:23:36;103654.28;;;8.30;91.14
72685;BME280;61365;52.162;4.500;2023-02-05T00:26:04;103658.19;;;8.21;89.73
72685;BME280;61365;52.162;4.500;2023-02-05T00:28:34;103663.25;;;8.18;90.50
72685;BME280;61365;52.162;4.500;2023-02-05T00:31:10;103657.56;;;8.25;90.17
72685;BME280;61365;52.162;4.500;2023-02-05T00:33:39;103658.53;;;8.27;90.30
72685;BME280;61365;52.162;4.500;2023-02-05T00:36:09;103670.44;;;8.54;89.62
72685;BME280;61365;52.162;4.500;2023-02-05T00:38:37;103675.47;;;8.34;89.10
72685;BME280;61365;52.162;4.500;2023-02-05T00:41:04;103663.78;;;8.44;89.52
72685;BME280;61365;52.162;4.500;2023-02-05T00:43:30;103667.03;;;8.40;88.78
72685;BME280;61365;52.162;4.500;2023-02-05T00:45:57;103668.91;;;8.26;87.52
72685;BME280;61365;52.162;4.500;2023-02-05T00:48:24;103672.66;;;8.15;88.15
72685;BME280;61365;52.162;4.500;2023-02-05T00:50:51;103673.91;;;8.21;88.25
72685;BME280;61365;52.162;4.500;2023-02-05T00:53:19;103668.16;;;8.12;87.85
72685;BME280;61365;52.162;4.500;2023-02-05T00:55:48;103662.97;;;8.29;88.92
72685;BME280;61365;52.162;4.500;2023-02-05T00:58:15;103671.13;;;8.35;88.18
72685;BME280;61365;52.162;4.500;2023-02-05T01:00:42;103674.72;;;8.20;87.31
72685;BME280;61365;52.162;4.500;2023-02-05T01:03:09;103672.19;;;8.38;87.88
72685;BME280;61365;52.162;4.500;2023-02-05T01:05:38;103663.25;;;8.35;87.35
72685;BME280;61365;52.162;4.500;2023-02-05T01:08:06;103660.25;;;8.27;86.21
72685;BME280;61365;52.162;4.500;2023-02-05T01:10:34;103650.34;;;8.38;85.86
72685;BME280;61365;52.162;4.500;2023-02-05T01:13:00;103655.75;;;8.41;85.88
72685;BME280;61365;52.162;4.500;2023-02-05T01:15:26;103654.84;;;8.24;85.93
72685;BME280;61365;52.162;4.500;2023-02-05T01:17:53;103654.25;;;8.13;85.87
72685;BME280;61365;52.162;4.500;2023-02-05T01:20:20;103659.50;;;8.13;86.43
72685;BME280;61365;52.162;4.500;2023-02-05T01:22:49;103665.47;;;8.10;86.20
72685;BME280;61365;52.162;4.500;2023-02-05T01:25:16;103669.66;;;8.23;86.70
72685;BME280;61365;52.162;4.500;2023-02-05T01:27:42;103672.34;;;8.25;85.67
72685;BME280;61365;52.162;4.500;2023-02-05T01:30:10;103671.84;;;8.16;85.94
72685;BME280;61365;52.162;4.500;2023-02-05T01:32:37;103668.25;;;8.14;85.47
72685;BME280;61365;52.162;4.500;2023-02-05T01:35:06;103668.16;;;8.12;85.02
72685;BME280;61365;52.162;4.500;2023-02-05T01:37:33;103675.50;;;8.03;86.23
72685;BME280;61365;52.162;4.500;2023-02-05T01:39:59;103673.88;;;8.05;87.24
72685;BME280;61365;52.162;4.500;2023-02-05T01:42:28;103649.59;;;8.07;87.36
72685;BME280;61365;52.162;4.500;2023-02-05T01:47:58;103639.78;;;8.20;86.20
72685;BME280;61365;52.162;4.500;2023-02-05T01:53:26;103637.09;;;8.35;84.41
72685;BME280;61365;52.162;4.500;2023-02-05T01:55:59;103641.75;;;8.24;85.21
72685;BME280;61365;52.162;4.500;2023-02-05T01:58:33;103636.47;;;8.22;85.90
72685;BME280;61365;52.162;4.500;2023-02-05T02:01:21;103632.28;;;8.09;86.83
72685;BME280;61365;52.162;4.500;2023-02-05T02:03:49;103623.78;;;8.14;85.17
72685;BME280;61365;52.162;4.500;2023-02-05T02:06:18;103624.09;;;8.03;87.13
72685;BME280;61365;52.162;4.500;2023-02-05T02:08:44;103620.16;;;7.95;86.62
72685;BME280;61365;52.162;4.500;2023-02-05T02:11:13;103620.59;;;8.03;86.09
72685;BME280;61365;52.162;4.500;2023-02-05T02:13:46;103621.25;;;7.99;86.53
72685;BME280;61365;52.162;4.500;2023-02-05T02:16:16;103614.56;;;8.04;86.24
72685;BME280;61365;52.162;4.500;2023-02-05T02:18:43;103602.84;;;7.97;86.92
72685;BME280;61365;52.162;4.500;2023-02-05T02:24:42;103581.44;;;7.88;87.57
72685;BME280;61365;52.162;4.500;2023-02-05T02:30:31;103587.97;;;7.96;86.82
72685;BME280;61365;52.162;4.500;2023-02-05T02:36:13;103590.25;;;7.90;87.86
72685;BME280;61365;52.162;4.500;2023-02-05T02:38:48;103583.16;;;8.04;87.19
72685;BME280;61365;52.162;4.500;2023-02-05T02:41:30;103577.59;;;7.97;85.85
72685;BME280;61365;52.162;4.500;2023-02-05T02:44:13;103582.50;;;7.91;87.45
72685;BME280;61365;52.162;4.500;2023-02-05T02:47:04;103582.09;;;8.00;88.15
72685;BME280;61365;52.162;4.500;2023-02-05T02:49:46;103592.94;;;8.08;87.58
72685;BME280;61365;52.162;4.500;2023-02-05T02:52:17;103587.59;;;8.05;87.18
72685;BME280;61365;52.162;4.500;2023-02-05T02:54:50;103589.28;;;8.04;86.98
72685;BME280;61365;52.162;4.500;2023-02-05T02:57:22;103589.94;;;8.17;87.91
72685;BME280;61365;52.162;4.500;2023-02-05T02:59:54;103585.13;;;8.24;87.69
72685;BME280;61365;52.162;4.500;2023-02-05T03:02:27;103590.59;;;8.29;87.80
72685;BME280;61365;52.162;4.500;2023-02-05T03:05:01;103596.81;;;8.15;87.58
72685;BME280;61365;52.162;4.500;2023-02-05T03:07:43;103598.28;;;8.26;88.38
72685;BME280;61365;52.162;4.500;2023-02-05T03:10:19;103602.63;;;8.25;89.27
72685;BME280;61365;52.162;4.500;2023-02-05T03:12:55;103610.38;;;8.24;89.10
72685;BME280;61365;52.162;4.500;2023-02-05T03:15:22;103610.06;;;8.18;89.24
72685;BME280;61365;52.162;4.500;2023-02-05T03:17:50;103610.38;;;8.24;90.10
72685;BME280;61365;52.162;4.500;2023-02-05T03:20:25;103603.84;;;8.32;90.86
72685;BME280;61365;52.162;4.500;2023-02-05T03:22:55;103603.50;;;8.43;91.26
72685;BME280;61365;52.162;4.500;2023-02-05T03:25:22;103605.31;;;8.27;90.27
72685;BME280;61365;52.162;4.500;2023-02-05T03:27:52;103602.69;;;8.27;91.82
72685;BME280;61365;52.162;4.500;2023-02-05T03:30:20;103595.09;;;8.15;91.44
72685;BME280;61365;52.162;4.500;2023-02-05T03:35:56;103605.88;;;8.21;91.48
72685;BME280;61365;52.162;4.500;2023-02-05T03:38:38;103595.50;;;8.06;91.69
72685;BME280;61365;52.162;4.500;2023-02-05T03:45:02;103587.59;;;8.05;92.15
72685;BME280;61365;52.162;4.500;2023-02-05T03:47:43;103593.94;;;8.10;94.00
72685;BME280;61365;52.162;4.500;2023-02-05T03:50:31;103598.84;;;8.04;93.47
72685;BME280;61365;52.162;4.500;2023-02-05T03:53:35;103607.25;;;7.98;93.76
72685;BME280;61365;52.162;4.500;2023-02-05T03:59:25;103618.38;;;8.10;95.42
72685;BME280;61365;52.162;4.500;2023-02-05T04:01:53;103617.63;;;8.13;93.51
72685;BME280;61365;52.162;4.500;2023-02-05T04:04:21;103618.47;;;8.12;94.21
72685;BME280;61365;52.162;4.500;2023-02-05T04:06:49;103622.31;;;8.19;94.95
72685;BME280;61365;52.162;4.500;2023-02-05T04:09:18;103634.81;;;8.24;94.94
72685;BME280;61365;52.162;4.500;2023-02-05T04:11:45;103644.13;;;8.03;94.24
72685;BME280;61365;52.162;4.500;2023-02-05T04:14:11;103640.63;;;8.35;93.98
72685;BME280;61365;52.162;4.500;2023-02-05T04:16:37;103655.59;;;8.21;93.69
72685;BME280;61365;52.162;4.500;2023-02-05T04:19:04;103634.91;;;8.09;91.50
72685;BME280;61365;52.162;4.500;2023-02-05T04:21:30;103651.00;;;8.17;90.93
72685;BME280;61365;52.162;4.500;2023-02-05T04:23:57;103651.22;;;8.05;92.70
72685;BME280;61365;52.162;4.500;2023-02-05T04:26:23;103648.41;;;7.69;93.04
72685;BME280;61365;52.162;4.500;2023-02-05T04:28:50;103645.91;;;7.72;91.69
72685;BME280;61365;52.162;4.500;2023-02-05T04:31:16;103656.47;;;7.74;92.40
72685;BME280;61365;52.162;4.500;2023-02-05T04:33:43;103657.41;;;7.59;92.61
72685;BME280;61365;52.162;4.500;2023-02-05T04:36:09;103652.84;;;7.40;93.42
72685;BME280;61365;52.162;4.500;2023-02-05T04:38:36;103666.78;;;7.56;93.79
72685;BME280;61365;52.162;4.500;2023-02-05T04:41:03;103666.44;;;7.34;92.01
72685;BME280;61365;52.162;4.500;2023-02-05T04:43:29;103680.66;;;7.55;91.46
72685;BME280;61365;52.162;4.500;2023-02-05T04:45:56;103675.69;;;7.59;90.08
72685;BME280;61365;52.162;4.500;2023-02-05T04:48:22;103685.28;;;7.44;91.91
72685;BME280;61365;52.162;4.500;2023-02-05T04:50:48;103684.19;;;7.55;90.33
72685;BME280;61365;52.162;4.500;2023-02-05T04:53:18;103699.34;;;7.31;91.58
72685;BME280;61365;52.162;4.500;2023-02-05T04:55:44;103702.50;;;7.40;89.43
72685;BME280;61365;52.162;4.500;2023-02-05T04:58:10;103707.53;;;7.22;90.22
72685;BME280;61365;52.162;4.500;2023-02-05T05:00:37;103708.22;;;7.19;89.66
72685;BME280;61365;52.162;4.500;2023-02-05T05:03:03;103721.59;;;7.24;90.34
72685;BME280;61365;52.162;4.500;2023-02-05T05:05:30;103722.94;;;7.17;88.30
72685;BME280;61365;52.162;4.500;2023-02-05T05:07:58;103726.25;;;7.15;88.40
72685;BME280;61365;52.162;4.500;2023-02-05T05:10:25;103732.56;;;7.03;87.71
72685;BME280;61365;52.162;4.500;2023-02-05T05:12:52;103734.16;;;6.86;87.86
72685;BME280;61365;52.162;4.500;2023-02-05T05:15:19;103738.81;;;6.92;86.78
72685;BME280;61365;52.162;4.500;2023-02-05T05:17:45;103730.22;;;6.65;88.13
72685;BME280;61365;52.162;4.500;2023-02-05T05:20:11;103737.72;;;6.73;85.43
72685;BME280;61365;52.162;4.500;2023-02-05T05:22:38;103750.91;;;6.61;88.21
72685;BME280;61365;52.162;4.500;2023-02-05T05:25:04;103758.44;;;6.85;85.65
72685;BME280;61365;52.162;4.500;2023-02-05T05:27:31;103755.56;;;6.81;85.34
72685;BME280;61365;52.162;4.500;2023-02-05T05:29:57;103751.69;;;6.89;85.21
72685;BME280;61365;52.162;4.500;2023-02-05T05:32:24;103756.09;;;6.90;83.64
72685;BME280;61365;52.162;4.500;2023-02-05T05:34:50;103754.56;;;6.79;83.82
72685;BME280;61365;52.162;4.500;2023-02-05T05:37:17;103767.22;;;6.72;85.40
72685;BME280;61365;52.162;4.500;2023-02-05T05:39:43;103764.00;;;6.76;85.11
72685;BME280;61365;52.162;4.500;2023-02-05T05:42:28;103761.44;;;6.91;82.87
72685;BME280;61365;52.162;4.500;2023-02-05T05:45:13;103763.19;;;6.78;83.09
72685;BME280;61365;52.162;4.500;2023-02-05T05:47:39;103764.00;;;6.76;84.00
72685;BME280;61365;52.162;4.500;2023-02-05T05:50:06;103757.25;;;6.80;84.90
72685;BME280;61365;52.162;4.500;2023-02-05T05:52:33;103762.47;;;6.80;84.56
72685;BME280;61365;52.162;4.500;2023-02-05T05:54:59;103775.19;;;6.89;84.22
72685;BME280;61365;52.162;4.500;2023-02-05T05:57:28;103780.53;;;6.90;83.99
72685;BME280;61365;52.162;4.500;2023-02-05T05:59:55;103773.34;;;7.01;82.73
72685;BME280;61365;52.162;4.500;2023-02-05T06:02:21;103774.84;;;6.98;80.89
72685;BME280;61365;52.162;4.500;2023-02-05T06:04:48;103770.69;;;6.86;81.66
72685;BME280;61365;52.162;4.500;2023-02-05T06:07:14;103779.19;;;6.97;81.17
72685;BME280;61365;52.162;4.500;2023-02-05T06:09:41;103791.31;;;6.68;83.88
72685;BME280;61365;52.162;4.500;2023-02-05T06:12:07;103787.28;;;6.73;83.20
72685;BME280;61365;52.162;4.500;2023-02-05T06:14:33;103793.13;;;6.69;84.49
72685;BME280;61365;52.162;4.500;2023-02-05T06:17:00;103792.19;;;6.82;82.98
72685;BME280;61365;52.162;4.500;2023-02-05T06:19:26;103794.47;;;6.63;86.40
72685;BME280;61365;52.162;4.500;2023-02-05T06:21:53;103800.34;;;6.73;83.08
72685;BME280;61365;52.162;4.500;2023-02-05T06:24:19;103810.66;;;6.72;83.83
72685;BME280;61365;52.162;4.500;2023-02-05T06:26:46;103799.81;;;6.79;81.97
72685;BME280;61365;52.162;4.500;2023-02-05T06:29:12;103813.66;;;6.91;81.19
72685;BME280;61365;52.162;4.500;2023-02-05T06:31:38;103818.22;;;6.96;81.22
72685;BME280;61365;52.162;4.500;2023-02-05T06:34:05;103828.50;;;6.93;83.86
72685;BME280;61365;52.162;4.500;2023-02-05T06:36:31;103822.38;;;6.92;82.21
72685;BME280;61365;52.162;4.500;2023-02-05T06:38:57;103831.88;;;6.76;82.78
72685;BME280;61365;52.162;4.500;2023-02-05T06:41:24;103839.50;;;7.02;82.58
72685;BME280;61365;52.162;4.500;2023-02-05T06:43:50;103839.31;;;6.99;79.61
72685;BME280;61365;52.162;4.500;2023-02-05T06:46:16;103846.59;;;6.89;82.85
72685;BME280;61365;52.162;4.500;2023-02-05T06:48:43;103853.78;;;6.94;81.75
72685;BME280;61365;52.162;4.500;2023-02-05T06:51:09;103848.19;;;6.87;83.23
72685;BME280;61365;52.162;4.500;2023-02-05T06:53:36;103856.31;;;6.92;81.24
72685;BME280;61365;52.162;4.500;2023-02-05T06:56:03;103867.34;;;6.88;82.55
72685;BME280;61365;52.162;4.500;2023-02-05T06:58:29;103863.00;;;7.02;80.86
72685;BME280;61365;52.162;4.500;2023-02-05T07:00:56;103867.84;;;6.96;82.47
72685;BME280;61365;52.162;4.500;2023-02-05T07:03:22;103872.59;;;6.88;82.36
72685;BME280;61365;52.162;4.500;2023-02-05T07:05:49;103883.53;;;6.82;82.26
72685;BME280;61365;52.162;4.500;2023-02-05T07:08:15;103889.75;;;6.84;82.72
72685;BME280;61365;52.162;4.500;2023-02-05T07:10:42;103897.16;;;7.05;80.56
72685;BME280;61365;52.162;4.500;2023-02-05T07:13:08;103911.06;;;6.90;80.32
72685;BME280;61365;52.162;4.500;2023-02-05T07:15:35;103908.50;;;7.05;83.29
72685;BME280;61365;52.162;4.500;2023-02-05T07:18:03;103918.09;;;6.91;82.36
72685;BME280;61365;52.162;4.500;2023-02-05T07:20:30;103921.25;;;7.01;80.95
72685;BME280;61365;52.162;4.500;2023-02-05T07:22:57;103923.91;;;6.87;81.93
72685;BME280;61365;52.162;4.500;2023-02-05T07:25:26;103930.41;;;6.94;80.81
72685;BME280;61365;52.162;4.500;2023-02-05T07:27:53;103937.13;;;7.04;80.49
72685;BME280;61365;52.162;4.500;2023-02-05T07:30:19;103942.66;;;6.95;83.07
72685;BME280;61365;52.162;4.500;2023-02-05T07:32:46;103949.50;;;6.93;82.00
72685;BME280;61365;52.162;4.500;2023-02-05T07:35:12;103960.53;;;7.02;80.63
72685;BME280;61365;52.162;4.500;2023-02-05T07:37:39;103965.97;;;6.79;82.24
72685;BME280;61365;52.162;4.500;2023-02-05T07:40:06;103961.13;;;6.98;81.47
72685;BME280;61365;52.162;4.500;2023-02-05T07:42:33;103959.63;;;7.02;82.09
72685;BME280;61365;52.162;4.500;2023-02-05T07:44:59;103977.09;;;7.03;81.49
72685;BME280;61365;52.162;4.500;2023-02-05T07:47:25;103968.84;;;6.97;81.25
72685;BME280;61365;52.162;4.500;2023-02-05T07:49:52;103968.63;;;7.20;79.13
72685;BME280;61365;52.162;4.500;2023-02-05T07:52:19;103969.34;;;7.18;80.02
72685;BME280;61365;52.162;4.500;2023-02-05T07:54:45;103973.84;;;7.20;80.96
72685;BME280;61365;52.162;4.500;2023-02-05T07:57:12;103962.66;;;7.36;80.31
72685;BME280;61365;52.162;4.500;2023-02-05T07:59:38;103966.53;;;7.28;80.32
72685;BME280;61365;52.162;4.500;2023-02-05T08:02:05;103968.19;;;7.41;77.85
72685;BME280;61365;52.162;4.500;2023-02-05T08:04:31;103981.19;;;7.26;82.54
72685;BME280;61365;52.162;4.500;2023-02-05T08:06:58;103975.31;;;7.44;77.94
72685;BME280;61365;52.162;4.500;2023-02-05T08:09:24;103977.97;;;7.17;81.02
72685;BME280;61365;52.162;4.500;2023-02-05T08:11:51;103980.66;;;7.32;79.75
72685;BME280;61365;52.162;4.500;2023-02-05T08:14:17;103974.91;;;7.38;79.80
72685;BME280;61365;52.162;4.500;2023-02-05T08:16:44;103990.59;;;7.38;79.09
72685;BME280;61365;52.162;4.500;2023-02-05T08:19:15;103994.19;;;7.40;78.81
72685;BME280;61365;52.162;4.500;2023-02-05T08:21:42;103985.97;;;7.33;78.60
72685;BME280;61365;52.162;4.500;2023-02-05T08:24:09;103986.28;;;7.38;77.73
72685;BME280;61365;52.162;4.500;2023-02-05T08:26:36;103991.97;;;7.46;78.10
72685;BME280;61365;52.162;4.500;2023-02-05T08:29:02;103985.81;;;7.59;77.71
72685;BME280;61365;52.162;4.500;2023-02-05T08:31:29;103993.66;;;7.59;76.87
72685;BME280;61365;52.162;4.500;2023-02-05T08:33:55;104004.63;;;7.53;79.20
72685;BME280;61365;52.162;4.500;2023-02-05T08:36:25;103999.78;;;7.59;78.05
72685;BME280;61365;52.162;4.500;2023-02-05T08:38:52;104012.38;;;7.51;78.95
72685;BME280;61365;52.162;4.500;2023-02-05T08:41:19;104016.66;;;7.64;76.58
72685;BME280;61365;52.162;4.500;2023-02-05T08:43:48;104026.03;;;7.61;77.19
72685;BME280;61365;52.162;4.500;2023-02-05T08:46:20;104030.25;;;7.45;77.08
72685;BME280;61365;52.162;4.500;2023-02-05T08:48:49;104024.81;;;7.56;75.87
72685;BME280;61365;52.162;4.500;2023-02-05T08:51:18;104035.53;;;7.32;78.21
72685;BME280;61365;52.162;4.500;2023-02-05T08:53:45;104043.66;;;7.78;76.71
72685;BME280;61365;52.162;4.500;2023-02-05T08:56:12;104038.38;;;7.63;76.80
72685;BME280;61365;52.162;4.500;2023-02-05T08:58:39;104041.09;;;7.65;77.58
72685;BME280;61365;52.162;4.500;2023-02-05T09:01:11;104044.06;;;7.71;77.63
72685;BME280;61365;52.162;4.500;2023-02-05T09:03:40;104046.50;;;7.68;77.41
72685;BME280;61365;52.162;4.500;2023-02-05T09:06:09;104049.94;;;7.67;78.95
72685;BME280;61365;52.162;4.500;2023-02-05T09:08:38;104043.75;;;7.80;74.70
72685;BME280;61365;52.162;4.500;2023-02-05T09:11:06;104046.41;;;7.66;76.66
72685;BME280;61365;52.162;4.500;2023-02-05T09:13:33;104058.13;;;7.87;75.89
72685;BME280;61365;52.162;4.500;2023-02-05T09:16:00;104051.69;;;7.81;75.95
72685;BME280;61365;52.162;4.500;2023-02-05T09:18:26;104051.09;;;7.72;77.50
72685;BME280;61365;52.162;4.500;2023-02-05T09:20:53;104023.59;;;7.92;76.29
72685;BME280;61365;52.162;4.500;2023-02-05T09:23:19;104032.81;;;7.72;78.48
72685;BME280;61365;52.162;4.500;2023-02-05T09:25:47;104028.09;;;7.95;77.56
72685;BME280;61365;52.162;4.500;2023-02-05T09:28:13;104026.97;;;8.05;75.63
72685;BME280;61365;52.162;4.500;2023-02-05T09:30:43;104015.66;;;7.91;77.12
72685;BME280;61365;52.162;4.500;2023-02-05T09:33:11;104023.50;;;7.91;76.22
72685;BME280;61365;52.162;4.500;2023-02-05T09:35:38;104057.84;;;7.97;75.89
72685;BME280;61365;52.162;4.500;2023-02-05T09:38:04;104035.34;;;8.14;75.55
72685;BME280;61365;52.162;4.500;2023-02-05T09:40:35;104035.91;;;8.23;74.79
72685;BME280;61365;52.162;4.500;2023-02-05T09:51:50;104043.59;;;8.35;73.16
72685;BME280;61365;52.162;4.500;2023-02-05T09:54:46;104045.75;;;8.27;74.59
72685;BME280;61365;52.162;4.500;2023-02-05T09:57:28;104050.50;;;8.20;75.34
72685;BME280;61365;52.162;4.500;2023-02-05T09:59:56;104061.91;;;8.35;73.72
72685;BME280;61365;52.162;4.500;2023-02-05T10:02:30;104052.38;;;8.51;72.87
72685;BME280;61365;52.162;4.500;2023-02-05T10:05:11;104053.81;;;8.31;75.04
72685;BME280;61365;52.162;4.500;2023-02-05T10:10:43;104073.81;;;8.30;74.48
72685;BME280;61365;52.162;4.500;2023-02-05T10:13:25;104060.19;;;8.36;73.73
72685;BME280;61365;52.162;4.500;2023-02-05T10:19:17;104058.34;;;8.05;76.88
72685;BME280;61365;52.162;4.500;2023-02-05T10:25:17;104066.56;;;8.11;76.73
72685;BME280;61365;52.162;4.500;2023-02-05T10:31:02;104053.59;;;8.13;75.13
72685;BME280;61365;52.162;4.500;2023-02-05T10:36:23;104067.91;;;8.04;77.14
72685;BME280;61365;52.162;4.500;2023-02-05T10:38:55;104074.34;;;7.96;75.49
72685;BME280;61365;52.162;4.500;2023-02-05T10:41:36;104072.13;;;8.02;77.76
72685;BME280;61365;52.162;4.500;2023-02-05T10:44:43;104066.19;;;8.05;77.08
72685;BME280;61365;52.162;4.500;2023-02-05T10:47:39;104070.78;;;8.09;75.35
72685;BME280;61365;52.162;4.500;2023-02-05T10:50:30;104075.28;;;8.40;76.84
72685;BME280;61365;52.162;4.500;2023-02-05T10:53:16;104067.47;;;8.70;73.31
72685;BME280;61365;52.162;4.500;2023-02-05T10:55:44;104084.25;;;8.59;72.84
72685;BME280;61365;52.162;4.500;2023-02-05T10:58:40;104062.69;;;8.63;75.52
72685;BME280;61365;52.162;4.500;2023-02-05T11:01:19;104075.59;;;8.75;74.77
72685;BME280;61365;52.162;4.500;2023-02-05T11:04:13;104072.44;;;8.50;75.13
72685;BME280;61365;52.162;4.500;2023-02-05T11:06:48;104077.69;;;8.50;73.61
72685;BME280;61365;52.162;4.500;2023-02-05T11:12:36;104072.44;;;8.65;73.45
72685;BME280;61365;52.162;4.500;2023-02-05T11:14:58;104064.97;;;8.56;72.16
72685;BME280;61365;52.162;4.500;2023-02-05T11:17:37;104046.41;;;8.38;75.38
72685;BME280;61365;52.162;4.500;2023-02-05T11:22:42;104049.41;;;8.75;72.55
72685;BME280;61365;52.162;4.500;2023-02-05T11:25:17;104051.41;;;8.64;73.93
72685;BME280;61365;52.162;4.500;2023-02-05T11:27:59;104050.28;;;8.45;74.08
72685;BME280;61365;52.162;4.500;2023-02-05T11:30:33;104045.09;;;8.75;72.02
72685;BME280;61365;52.162;4.500;2023-02-05T11:33:28;104063.97;;;8.54;73.78
72685;BME280;61365;52.162;4.500;2023-02-05T11:36:04;104065.66;;;8.84;71.14
72685;BME280;61365;52.162;4.500;2023-02-05T11:39:01;104071.47;;;8.78;71.00
72685;BME280;61365;52.162;4.500;2023-02-05T11:41:31;104065.22;;;8.61;71.25
72685;BME280;61365;52.162;4.500;2023-02-05T11:43:59;104054.44;;;8.41;71.75
72685;BME280;61365;52.162;4.500;2023-02-05T11:46:32;104059.75;;;8.43;71.39
72685;BME280;61365;52.162;4.500;2023-02-05T11:49:20;104075.69;;;8.33;71.60
72685;BME280;61365;52.162;4.500;2023-02-05T11:51:52;104064.88;;;8.26;72.37
72685;BME280;61365;52.162;4.500;2023-02-05T11:54:25;104055.44;;;8.44;72.48
72685;BME280;61365;52.162;4.500;2023-02-05T11:59:55;104072.66;;;8.40;70.57
72685;BME280;61365;52.162;4.500;2023-02-05T12:02:44;104075.28;;;8.40;72.00
72685;BME280;61365;52.162;4.500;2023-02-05T12:19:19;104073.78;;;8.59;69.77
72685;BME280;61365;52.162;4.500;2023-02-05T12:21:56;104088.13;;;8.22;73.34
72685;BME280;61365;52.162;4.500;2023-02-05T12:30:29;104078.13;;;8.58;70.81
72685;BME280;61365;52.162;4.500;2023-02-05T12:53:37;104084.53;;;8.63;69.19
72685;BME280;61365;52.162;4.500;2023-02-05T12:59:14;104099.00;;;8.56;73.41
72685;BME280;61365;52.162;4.500;2023-02-05T13:02:06;104087.88;;;8.61;71.37
72685;BME280;61365;52.162;4.500;2023-02-05T13:04:42;104079.06;;;8.45;69.37
72685;BME280;61365;52.162;4.500;2023-02-05T13:07:34;104065.81;;;8.42;70.57
72685;BME280;61365;52.162;4.500;2023-02-05T13:10:15;104081.19;;;8.51;70.17
72685;BME280;61365;52.162;4.500;2023-02-05T13:12:49;104088.97;;;8.49;71.32
72685;BME280;61365;52.162;4.500;2023-02-05T13:15:27;104076.16;;;8.69;70.97
72685;BME280;61365;52.162;4.500;2023-02-05T13:18:56;104084.63;;;8.80;71.32
72685;BME280;61365;52.162;4.500;2023-02-05T13:21:04;104088.16;;;8.80;69.16
72685;BME280;61365;52.162;4.500;2023-02-05T13:24:23;104106.97;;;8.45;72.14
72685;BME280;61365;52.162;4.500;2023-02-05T13:27:28;104100.16;;;8.77;70.53
72685;BME280;61365;52.162;4.500;2023-02-05T13:30:42;104103.75;;;8.49;69.71
72685;BME280;61365;52.162;4.500;2023-02-05T13:33:15;104106.84;;;8.28;71.14
72685;BME280;61365;52.162;4.500;2023-02-05T13:58:24;104116.47;;;8.57;71.25
72685;BME280;61365;52.162;4.500;2023-02-05T14:05:56;104106.13;;;8.46;70.11
72685;BME280;61365;52.162;4.500;2023-02-05T14:08:25;104110.72;;;8.48;71.25
72685;BME280;61365;52.162;4.500;2023-02-05T14:11:02;104117.25;;;8.41;72.08
72685;BME280;61365;52.162;4.500;2023-02-05T14:13:32;104107.06;;;8.46;71.88
72685;BME280;61365;52.162;4.500;2023-02-05T14:29:42;104104.06;;;7.83;74.42
72685;BME280;61365;52.162;4.500;2023-02-05T14:32:11;104105.06;;;7.85;72.56
72685;BME280;61365;52.162;4.500;2023-02-05T14:37:05;104130.38;;;8.00;72.35
72685;BME280;61365;52.162;4.500;2023-02-05T14:39:50;104102.28;;;8.10;72.91
72685;BME280;61365;52.162;4.500;2023-02-05T14:42:19;104098.66;;;8.08;72.24
72685;BME280;61365;52.162;4.500;2023-02-05T14:44:52;104110.56;;;8.03;74.63
72685;BME280;61365;52.162;4.500;2023-02-05T14:47:27;104115.91;;;8.05;72.33
72685;BME280;61365;52.162;4.500;2023-02-05T14:50:04;104112.97;;;8.00;72.20
72685;BME280;61365;52.162;4.500;2023-02-05T14:52:46;104117.25;;;7.85;72.29
72685;BME280;61365;52.162;4.500;2023-02-05T14:55:39;104118.19;;;8.00;73.19
72685;BME280;61365;52.162;4.500;2023-02-05T15:04:03;104135.75;;;7.88;72.93
72685;BME280;61365;52.162;4.500;2023-02-05T15:06:38;104132.03;;;7.84;73.00
72685;BME280;61365;52.162;4.500;2023-02-05T15:09:15;104132.25;;;7.74;73.17
72685;BME280;61365;52.162;4.500;2023-02-05T15:12:14;104132.34;;;7.75;73.55
72685;BME280;61365;52.162;4.500;2023-02-05T15:20:38;104149.06;;;7.64;74.25
72685;BME280;61365;52.162;4.500;2023-02-05T15:23:18;104145.22;;;7.86;74.03
72685;BME280;61365;52.162;4.500;2023-02-05T15:26:00;104143.78;;;7.91;72.23
72685;BME280;61365;52.162;4.500;2023-02-05T15:28:37;104155.66;;;7.86;73.72
72685;BME280;61365;52.162;4.500;2023-02-05T15:31:23;104159.97;;;7.85;73.05
72685;BME280;61365;52.162;4.500;2023-02-05T15:37:00;104171.78;;;7.65;73.65
72685;BME280;61365;52.162;4.500;2023-02-05T15:42:09;104175.59;;;7.57;74.57
72685;BME280;61365;52.162;4.500;2023-02-05T15:48:11;104183.03;;;7.50;75.13
72685;BME280;61365;52.162;4.500;2023-02-05T15:50:43;104173.91;;;7.44;75.56
72685;BME280;61365;52.162;4.500;2023-02-05T15:58:57;104192.09;;;7.42;75.76
72685;BME280;61365;52.162;4.500;2023-02-05T16:01:28;104205.03;;;7.27;76.14
72685;BME280;61365;52.162;4.500;2023-02-05T16:03:57;104206.94;;;7.16;76.80
72685;BME280;61365;52.162;4.500;2023-02-05T16:06:26;104217.31;;;7.28;75.80
72685;BME280;61365;52.162;4.500;2023-02-05T16:08:55;104228.56;;;7.27;76.85
72685;BME280;61365;52.162;4.500;2023-02-05T16:11:34;104226.31;;;7.20;76.81
72685;BME280;61365;52.162;4.500;2023-02-05T16:14:04;104241.72;;;7.29;76.45
72685;BME280;61365;52.162;4.500;2023-02-05T16:16:49;104235.53;;;7.01;76.97